createdAt,value
2022-09-01T00:01:43.411Z,100906.09
2022-09-01T00:06:46.192Z,100901.78
2022-09-01T00:11:50.794Z,100906.06
2022-09-01T00:16:55.074Z,100904.38
2022-09-01T00:21:57.758Z,100907.31
2022-09-01T00:27:00.481Z,100908.53
2022-09-01T00:32:04.962Z,100907.28
2022-09-01T00:37:07.728Z,100899.81
2022-09-01T00:42:10.630Z,100909.56
2022-09-01T00:47:14.875Z,100904.31
2022-09-01T00:52:20.668Z,100896.88
2022-09-01T00:57:23.369Z,100900.44
2022-09-01T01:02:27.471Z,100907.47
2022-09-01T01:07:30.338Z,100899.94
2022-09-01T01:12:33.245Z,100899.53
2022-09-01T01:17:37.353Z,100897.63
2022-09-01T01:23:02.378Z,100888.78
2022-09-01T01:28:11.910Z,100901.34
2022-09-01T01:33:14.722Z,100898.91
2022-09-01T01:38:22.607Z,100901.34
2022-09-01T01:43:29.013Z,100899.09
2022-09-01T01:48:34.651Z,100906.22
2022-09-01T01:53:37.470Z,100909.28
2022-09-01T01:58:41.767Z,100899.53
2022-09-01T02:03:46.785Z,100903.13
2022-09-01T02:08:49.554Z,100912.22
2022-09-01T02:13:56.231Z,100892.03
2022-09-01T02:18:59.234Z,100892.66
2022-09-01T02:24:03.605Z,100884.69
2022-09-01T02:29:10.057Z,100885.31
2022-09-01T02:34:18.015Z,100888.22
2022-09-01T02:39:23.125Z,100889.22
2022-09-01T02:44:27.789Z,100878.06
2022-09-01T02:49:31.353Z,100868.31
2022-09-01T02:54:34.094Z,100868.44
2022-09-01T02:59:43.597Z,100877.25
2022-09-01T03:04:49.816Z,100867.44
2022-09-01T03:09:53.190Z,100869.78
2022-09-01T03:14:57.294Z,100873.69
2022-09-01T03:20:00.009Z,100883.34
2022-09-01T03:25:02.715Z,100878.44
2022-09-01T03:30:08.370Z,100878.22
2022-09-01T03:35:11.140Z,100885.19
2022-09-01T03:40:14.254Z,100880.41
2022-09-01T03:45:20.363Z,100884.81
2022-09-01T03:50:28.057Z,100886.03
2022-09-01T03:55:33.943Z,100885.19
2022-09-01T04:00:39.602Z,100890.81
2022-09-01T04:05:44.199Z,100881.13
2022-09-01T04:10:54.398Z,100877.09
2022-09-01T04:15:59.380Z,100880.19
2022-09-01T04:21:02.174Z,100891.00
2022-09-01T04:26:09.448Z,100886.00
2022-09-01T04:31:19.449Z,100882.47
2022-09-01T04:36:25.940Z,100881.59
2022-09-01T04:41:31.876Z,100892.84
2022-09-01T04:46:42.208Z,100902.38
2022-09-01T04:51:53.409Z,100902.75
2022-09-01T04:56:57.000Z,100902.22
2022-09-01T05:02:01.786Z,100911.66
2022-09-01T05:07:05.687Z,100900.28
2022-09-01T05:12:16.044Z,100908.81
2022-09-01T05:17:23.328Z,100906.22
2022-09-01T05:22:26.989Z,100899.91
2022-09-01T05:27:34.849Z,100905.53
2022-09-01T05:32:40.385Z,100901.97
2022-09-01T05:37:44.739Z,100906.38
2022-09-01T05:42:47.832Z,100904.53
2022-09-01T05:47:52.451Z,100909.81
2022-09-01T05:52:55.917Z,100914.31
2022-09-01T05:57:58.863Z,100920.81
2022-09-01T06:03:07.694Z,100918.41
2022-09-01T06:08:14.903Z,100911.63
2022-09-01T06:13:21.861Z,100912.97
2022-09-01T06:18:29.989Z,100914.69
2022-09-01T06:23:34.333Z,100917.25
2022-09-01T06:28:41.005Z,100920.69
2022-09-01T06:33:45.637Z,100923.50
2022-09-01T06:38:50.064Z,100930.34
2022-09-01T06:43:54.037Z,100930.63
2022-09-01T06:48:59.077Z,100932.13
2022-09-01T06:54:03.379Z,100933.22
2022-09-01T06:59:10.050Z,100933.97
2022-09-01T07:04:17.224Z,100932.34
2022-09-01T07:20:24.436Z,100937.06
2022-09-01T07:26:00.372Z,100945.25
2022-09-01T07:37:15.151Z,100938.03
2022-09-01T07:42:56.125Z,100931.00
2022-09-01T07:47:53.404Z,100955.03
2022-09-01T07:53:00.604Z,100952.25
2022-09-01T07:58:03.557Z,100950.41
2022-09-01T08:03:07.066Z,100958.25
2022-09-01T08:08:18.865Z,100960.69
2022-09-01T08:13:22.495Z,100960.81
2022-09-01T08:18:25.675Z,100962.41
2022-09-01T08:23:30.188Z,100963.84
2022-09-01T08:28:33.610Z,100961.66
2022-09-01T08:33:36.449Z,100954.56
2022-09-01T08:38:40.907Z,100962.47
2022-09-01T08:43:51.682Z,100964.13
2022-09-01T08:54:45.523Z,100962.66
2022-09-01T08:59:50.271Z,100968.28
2022-09-01T09:05:22.419Z,100969.56
2022-09-01T09:10:27.638Z,100960.41
2022-09-01T09:15:34.993Z,100962.88
2022-09-01T09:20:38.374Z,100976.59
2022-09-01T09:25:44.823Z,100965.22
2022-09-01T09:30:48.720Z,100965.00
2022-09-01T09:35:51.486Z,100960.09
2022-09-01T09:41:20.340Z,100953.50
2022-09-01T09:46:27.853Z,100947.13
2022-09-01T09:51:30.548Z,100954.09
2022-09-01T09:56:36.063Z,100952.97
2022-09-01T10:01:39.558Z,100946.53
2022-09-01T10:06:46.810Z,100948.84
2022-09-01T10:11:52.540Z,100948.94
2022-09-01T10:16:58.158Z,100953.63
2022-09-01T10:22:01.530Z,100938.06
2022-09-01T10:27:17.810Z,100943.31
2022-09-01T10:32:35.262Z,100943.19
2022-09-01T10:37:41.426Z,100942.97
2022-09-01T10:42:46.957Z,100947.13
2022-09-01T10:47:49.727Z,100940.00
2022-09-01T10:53:04.956Z,100938.56
2022-09-01T11:03:56.549Z,100932.78
2022-09-01T11:09:01.151Z,100928.03
2022-09-01T11:14:11.445Z,100926.66
2022-09-01T11:19:34.456Z,100920.28
2022-09-01T11:25:00.204Z,100916.50
2022-09-01T11:30:10.149Z,100906.81
2022-09-01T11:35:16.723Z,100906.41
2022-09-01T11:40:21.518Z,100900.41
2022-09-01T11:45:28.282Z,100904.09
2022-09-01T11:50:32.126Z,100904.22
2022-09-01T11:55:36.293Z,100896.41
2022-09-01T12:00:41.292Z,100894.94
2022-09-01T12:05:44.123Z,100891.75
2022-09-01T12:10:47.100Z,100893.22
2022-09-01T12:16:16.950Z,100890.50
2022-09-01T12:21:20.672Z,100887.94
2022-09-01T12:26:25.531Z,100899.13
2022-09-01T12:31:29.575Z,100892.34
2022-09-01T12:36:33.605Z,100894.78
2022-09-01T12:41:38.974Z,100890.97
2022-09-01T12:46:44.864Z,100896.22
2022-09-01T12:51:48.722Z,100889.13
2022-09-01T12:56:51.903Z,100892.69
2022-09-01T13:01:56.064Z,100879.31
2022-09-01T13:07:03.120Z,100889.53
2022-09-01T13:12:14.117Z,100881.69
2022-09-01T13:17:19.447Z,100877.25
2022-09-01T13:22:22.272Z,100867.31
2022-09-01T13:27:24.958Z,100864.25
2022-09-01T13:32:29.197Z,100861.81
2022-09-01T13:37:32.008Z,100854.81
2022-09-01T13:42:34.798Z,100858.59
2022-09-01T13:48:15.265Z,100855.03
2022-09-01T13:53:02.024Z,100840.34
2022-09-01T13:58:04.906Z,100843.63
2022-09-01T14:03:11.097Z,100846.06
2022-09-01T14:08:14.530Z,100835.88
2022-09-01T14:13:17.292Z,100832.50
2022-09-01T14:18:21.790Z,100830.09
2022-09-01T14:23:25.034Z,100827.13
2022-09-01T14:28:27.735Z,100823.19
2022-09-01T14:33:32.303Z,100834.78
2022-09-01T14:38:35.143Z,100825.44
2022-09-01T14:43:38.675Z,100832.06
2022-09-01T14:48:42.871Z,100815.38
2022-09-01T14:53:45.719Z,100823.47
2022-09-01T14:58:48.730Z,100825.09
2022-09-01T15:03:52.852Z,100820.66
2022-09-01T15:08:55.647Z,100816.00
2022-09-01T15:13:58.752Z,100817.59
2022-09-01T15:19:02.761Z,100813.63
2022-09-01T15:24:09.020Z,100808.81
2022-09-01T15:29:13.125Z,100806.13
2022-09-01T15:34:18.187Z,100804.28
2022-09-01T15:39:21.296Z,100805.13
2022-09-01T15:44:23.995Z,100799.63
2022-09-01T15:49:28.140Z,100786.00
2022-09-01T15:54:30.947Z,100791.09
2022-09-01T15:59:34.134Z,100785.31
2022-09-01T16:04:39.999Z,100779.50
2022-09-01T16:09:42.740Z,100782.69
2022-09-01T16:14:45.573Z,100769.31
2022-09-01T16:19:53.450Z,100766.06
2022-09-01T16:24:57.863Z,100778.47
2022-09-01T16:30:03.203Z,100776.06
2022-09-01T16:35:08.435Z,100780.06
2022-09-01T16:40:17.964Z,100773.81
2022-09-01T16:45:26.989Z,100775.09
2022-09-01T16:50:38.129Z,100770.69
2022-09-01T16:55:48.191Z,100769.41
2022-09-01T17:00:57.722Z,100773.06
2022-09-01T17:06:11.829Z,100766.25
2022-09-01T17:11:19.156Z,100768.53
2022-09-01T17:16:24.015Z,100771.78
2022-09-01T17:21:33.064Z,100779.59
2022-09-01T17:26:40.194Z,100788.69
2022-09-01T17:31:49.193Z,100786.84
2022-09-01T17:36:56.034Z,100795.41
2022-09-01T17:42:00.499Z,100793.56
2022-09-01T17:47:08.313Z,100801.78
2022-09-01T17:52:16.062Z,100797.25
2022-09-01T17:57:22.037Z,100804.09
2022-09-01T18:02:37.282Z,100803.38
2022-09-01T18:07:50.921Z,100812.59
2022-09-01T18:13:01.793Z,100805.22
2022-09-01T18:18:22.527Z,100811.47
2022-09-01T18:23:27.218Z,100814.19
2022-09-01T18:28:29.909Z,100808.19
2022-09-01T18:33:36.692Z,100816.44
2022-09-01T18:38:45.956Z,100813.84
2022-09-01T18:43:50.693Z,100821.81
2022-09-01T18:48:59.866Z,100821.81
2022-09-01T18:54:06.114Z,100826.91
2022-09-01T18:59:28.235Z,100833.03
2022-09-01T19:04:41.103Z,100826.66
2022-09-01T19:09:52.156Z,100827.66
2022-09-01T19:14:58.849Z,100830.34
2022-09-01T19:20:04.244Z,100838.69
2022-09-01T19:25:32.979Z,100833.91
2022-09-01T19:30:36.362Z,100835.28
2022-09-01T19:35:39.091Z,100837.97
2022-09-01T19:40:43.603Z,100836.47
2022-09-01T19:45:53.306Z,100841.88
2022-09-01T19:50:57.115Z,100845.22
2022-09-01T19:56:04.189Z,100847.06
2022-09-01T20:01:06.988Z,100849.19
2022-09-01T20:06:10.844Z,100846.50
2022-09-01T20:11:18.795Z,100846.50
2022-09-01T20:16:25.597Z,100844.44
2022-09-01T20:21:28.361Z,100848.59
2022-09-01T20:26:36.074Z,100846.03
2022-09-01T20:31:40.625Z,100851.56
2022-09-01T20:36:45.731Z,100854.25
2022-09-01T20:41:51.957Z,100847.72
2022-09-01T20:46:54.635Z,100851.69
2022-09-01T20:52:00.546Z,100852.69
2022-09-01T20:57:10.814Z,100851.56
2022-09-01T21:02:31.181Z,100862.50
2022-09-01T21:07:36.707Z,100867.19
2022-09-01T21:12:44.401Z,100857.34
2022-09-01T21:17:53.216Z,100857.66
2022-09-01T21:23:01.222Z,100856.09
2022-09-01T21:28:08.212Z,100852.94
2022-09-01T21:33:10.957Z,100855.75
2022-09-01T21:38:13.700Z,100852.22
2022-09-01T21:43:19.350Z,100854.91
2022-09-01T21:48:22.218Z,100850.50
2022-09-01T21:53:31.381Z,100848.53
2022-09-01T21:58:37.678Z,100850.97
2022-09-01T22:03:40.552Z,100848.34
2022-09-01T22:08:43.258Z,100840.25
2022-09-01T22:13:47.242Z,100839.25
2022-09-01T22:18:49.902Z,100843.78
2022-09-01T22:23:52.781Z,100840.25
2022-09-01T22:28:56.926Z,100837.06
2022-09-01T22:33:59.657Z,100840.75
2022-09-01T22:39:02.331Z,100838.44
2022-09-01T22:44:06.483Z,100841.47
2022-09-01T22:49:09.402Z,100843.38
2022-09-01T22:54:12.684Z,100839.47
2022-09-01T22:59:16.912Z,100836.75
2022-09-01T23:04:19.765Z,100835.44
2022-09-01T23:09:22.457Z,100835.97
2022-09-01T23:14:26.666Z,100832.56
2022-09-01T23:19:29.372Z,100830.94
2022-09-01T23:24:32.086Z,100824.09
2022-09-01T23:29:36.155Z,100830.50
2022-09-01T23:34:39.612Z,100827.06
2022-09-01T23:39:42.411Z,100825.72
2022-09-01T23:44:46.538Z,100822.19
2022-09-01T23:49:49.349Z,100829.56
2022-09-01T23:54:52.221Z,100820.84
2022-09-01T23:59:57.918Z,100814.84
